sensor_id;sensor_type;location;lat;lon;timestamp;temperature;humidity
64855;DHT22;51321;50.428;8.378;2022-09-09T00:01:37;16.30;99.90
64855;DHT22;51321;50.428;8.378;2022-09-09T00:04:09;16.40;99.90
64855;DHT22;51321;50.428;8.378;2022-09-09T00:06:43;16.30;99.90
64855;DHT22;51321;50.428;8.378;2022-09-09T00:09:11;16.30;99.90
64855;DHT22;51321;50.428;8.378;2022-09-09T00:11:40;16.40;99.90
64855;DHT22;51321;50.428;8.378;2022-09-09T00:14:08;16.30;99.90
64855;DHT22;51321;50.428;8.378;2022-09-09T00:16:37;16.30;99.90
64855;DHT22;51321;50.428;8.378;2022-09-09T00:19:05;16.30;99.90
64855;DHT22;51321;50.428;8.378;2022-09-09T00:21:33;16.20;99.90
64855;DHT22;51321;50.428;8.378;2022-09-09T00:23:55;16.30;99.90
64855;DHT22;51321;50.428;8.378;2022-09-09T00:26:22;16.30;99.90
64855;DHT22;51321;50.428;8.378;2022-09-09T00:29:09;16.20;99.90
64855;DHT22;51321;50.428;8.378;2022-09-09T00:31:38;16.20;99.90
64855;DHT22;51321;50.428;8.378;2022-09-09T00:34:05;16.20;99.90
64855;DHT22;51321;50.428;8.378;2022-09-09T00:36:32;16.30;99.90
64855;DHT22;51321;50.428;8.378;2022-09-09T00:38:57;16.20;99.90
64855;DHT22;51321;50.428;8.378;2022-09-09T00:41:25;16.20;99.90
64855;DHT22;51321;50.428;8.378;2022-09-09T00:43:57;16.30;99.90
64855;DHT22;51321;50.428;8.378;2022-09-09T00:46:40;16.30;99.90
64855;DHT22;51321;50.428;8.378;2022-09-09T00:49:05;16.20;99.90
64855;DHT22;51321;50.428;8.378;2022-09-09T00:51:39;16.10;99.90
64855;DHT22;51321;50.428;8.378;2022-09-09T00:54:25;16.00;99.90
64855;DHT22;51321;50.428;8.378;2022-09-09T00:56:56;16.00;99.90
64855;DHT22;51321;50.428;8.378;2022-09-09T00:59:27;16.10;99.90
64855;DHT22;51321;50.428;8.378;2022-09-09T01:01:52;16.10;99.90
64855;DHT22;51321;50.428;8.378;2022-09-09T01:04:20;16.20;99.90
64855;DHT22;51321;50.428;8.378;2022-09-09T01:06:50;16.20;99.90
64855;DHT22;51321;50.428;8.378;2022-09-09T01:09:18;16.20;99.90
64855;DHT22;51321;50.428;8.378;2022-09-09T01:11:51;16.10;99.90
64855;DHT22;51321;50.428;8.378;2022-09-09T01:14:18;16.10;99.90
64855;DHT22;51321;50.428;8.378;2022-09-09T01:16:43;16.10;99.90
64855;DHT22;51321;50.428;8.378;2022-09-09T01:19:07;16.10;99.90
64855;DHT22;51321;50.428;8.378;2022-09-09T01:21:38;16.10;99.90
64855;DHT22;51321;50.428;8.378;2022-09-09T01:24:15;16.10;99.90
64855;DHT22;51321;50.428;8.378;2022-09-09T01:27:02;16.10;99.90
64855;DHT22;51321;50.428;8.378;2022-09-09T01:29:27;16.10;99.90
64855;DHT22;51321;50.428;8.378;2022-09-09T01:31:54;16.10;99.90
64855;DHT22;51321;50.428;8.378;2022-09-09T01:34:17;16.10;99.90
64855;DHT22;51321;50.428;8.378;2022-09-09T01:36:44;16.20;99.90
64855;DHT22;51321;50.428;8.378;2022-09-09T01:39:10;16.20;99.90
64855;DHT22;51321;50.428;8.378;2022-09-09T01:41:33;16.30;99.90
64855;DHT22;51321;50.428;8.378;2022-09-09T01:44:01;16.30;99.90
64855;DHT22;51321;50.428;8.378;2022-09-09T01:46:25;16.30;99.90
64855;DHT22;51321;50.428;8.378;2022-09-09T01:48:50;16.40;99.90
64855;DHT22;51321;50.428;8.378;2022-09-09T01:51:12;16.30;99.90
64855;DHT22;51321;50.428;8.378;2022-09-09T01:53:34;16.30;99.90
64855;DHT22;51321;50.428;8.378;2022-09-09T01:56:00;16.30;99.90
64855;DHT22;51321;50.428;8.378;2022-09-09T01:58:32;16.30;99.90
64855;DHT22;51321;50.428;8.378;2022-09-09T02:01:02;16.30;99.90
64855;DHT22;51321;50.428;8.378;2022-09-09T02:03:28;16.20;99.90
64855;DHT22;51321;50.428;8.378;2022-09-09T02:06:07;16.20;99.90
64855;DHT22;51321;50.428;8.378;2022-09-09T02:08:38;16.20;99.90
64855;DHT22;51321;50.428;8.378;2022-09-09T02:11:06;16.20;99.90
64855;DHT22;51321;50.428;8.378;2022-09-09T02:13:37;16.20;99.90
64855;DHT22;51321;50.428;8.378;2022-09-09T02:16:07;16.20;99.90
64855;DHT22;51321;50.428;8.378;2022-09-09T02:18:34;16.20;99.90
64855;DHT22;51321;50.428;8.378;2022-09-09T02:20:58;16.10;99.90
64855;DHT22;51321;50.428;8.378;2022-09-09T02:23:21;16.10;99.90
64855;DHT22;51321;50.428;8.378;2022-09-09T02:25:47;16.10;99.90
64855;DHT22;51321;50.428;8.378;2022-09-09T02:28:16;16.10;99.90
64855;DHT22;51321;50.428;8.378;2022-09-09T02:30:42;16.10;99.90
64855;DHT22;51321;50.428;8.378;2022-09-09T02:33:10;16.10;99.90
64855;DHT22;51321;50.428;8.378;2022-09-09T02:35:45;16.10;99.90
64855;DHT22;51321;50.428;8.378;2022-09-09T02:38:13;16.00;99.90
64855;DHT22;51321;50.428;8.378;2022-09-09T02:40:41;16.00;99.90
64855;DHT22;51321;50.428;8.378;2022-09-09T02:43:03;16.10;99.90
64855;DHT22;51321;50.428;8.378;2022-09-09T02:45:34;16.10;99.90
64855;DHT22;51321;50.428;8.378;2022-09-09T02:48:03;16.20;99.90
64855;DHT22;51321;50.428;8.378;2022-09-09T02:50:33;16.20;99.90
64855;DHT22;51321;50.428;8.378;2022-09-09T02:53:06;16.20;99.90
64855;DHT22;51321;50.428;8.378;2022-09-09T02:55:39;16.30;99.90
64855;DHT22;51321;50.428;8.378;2022-09-09T02:58:07;16.30;99.90
64855;DHT22;51321;50.428;8.378;2022-09-09T03:00:32;16.20;99.90
64855;DHT22;51321;50.428;8.378;2022-09-09T03:02:56;16.20;99.90
64855;DHT22;51321;50.428;8.378;2022-09-09T03:05:18;16.10;99.90
64855;DHT22;51321;50.428;8.378;2022-09-09T03:07:42;16.10;99.90
64855;DHT22;51321;50.428;8.378;2022-09-09T03:10:05;16.10;99.90
64855;DHT22;51321;50.428;8.378;2022-09-09T03:12:30;16.20;99.90
64855;DHT22;51321;50.428;8.378;2022-09-09T03:14:54;16.30;99.90
64855;DHT22;51321;50.428;8.378;2022-09-09T03:17:16;16.20;99.90
64855;DHT22;51321;50.428;8.378;2022-09-09T03:19:46;16.20;99.90
64855;DHT22;51321;50.428;8.378;2022-09-09T03:22:10;16.30;99.90
64855;DHT22;51321;50.428;8.378;2022-09-09T03:24:38;16.30;99.90
64855;DHT22;51321;50.428;8.378;2022-09-09T03:27:01;16.40;99.90
64855;DHT22;51321;50.428;8.378;2022-09-09T03:29:23;16.30;99.90
64855;DHT22;51321;50.428;8.378;2022-09-09T03:31:48;16.40;99.90
64855;DHT22;51321;50.428;8.378;2022-09-09T03:34:11;16.50;99.90
64855;DHT22;51321;50.428;8.378;2022-09-09T03:36:34;16.50;99.90
64855;DHT22;51321;50.428;8.378;2022-09-09T03:38:56;16.50;99.90
64855;DHT22;51321;50.428;8.378;2022-09-09T03:41:22;16.50;99.90
64855;DHT22;51321;50.428;8.378;2022-09-09T03:43:51;16.60;99.90
64855;DHT22;51321;50.428;8.378;2022-09-09T03:46:14;16.70;99.90
64855;DHT22;51321;50.428;8.378;2022-09-09T03:48:36;16.70;99.90
64855;DHT22;51321;50.428;8.378;2022-09-09T03:50:59;16.70;99.90
64855;DHT22;51321;50.428;8.378;2022-09-09T03:53:23;16.60;99.90
64855;DHT22;51321;50.428;8.378;2022-09-09T03:55:48;16.60;99.90
64855;DHT22;51321;50.428;8.378;2022-09-09T03:58:12;16.60;99.90
64855;DHT22;51321;50.428;8.378;2022-09-09T04:00:35;16.60;99.90
64855;DHT22;51321;50.428;8.378;2022-09-09T04:02:57;16.70;99.90
64855;DHT22;51321;50.428;8.378;2022-09-09T04:05:19;16.60;99.90
64855;DHT22;51321;50.428;8.378;2022-09-09T04:07:42;16.50;99.90
64855;DHT22;51321;50.428;8.378;2022-09-09T04:10:06;16.50;99.90
64855;DHT22;51321;50.428;8.378;2022-09-09T04:12:29;16.40;99.90
64855;DHT22;51321;50.428;8.378;2022-09-09T04:14:53;16.40;99.90
64855;DHT22;51321;50.428;8.378;2022-09-09T04:17:15;16.50;99.90
64855;DHT22;51321;50.428;8.378;2022-09-09T04:19:37;16.40;99.90
64855;DHT22;51321;50.428;8.378;2022-09-09T04:22:00;16.40;99.90
64855;DHT22;51321;50.428;8.378;2022-09-09T04:24:21;16.40;99.90
64855;DHT22;51321;50.428;8.378;2022-09-09T04:26:44;16.50;99.90
64855;DHT22;51321;50.428;8.378;2022-09-09T04:29:07;16.50;99.90
64855;DHT22;51321;50.428;8.378;2022-09-09T04:31:32;16.60;99.90
64855;DHT22;51321;50.428;8.378;2022-09-09T04:33:54;16.50;99.90
64855;DHT22;51321;50.428;8.378;2022-09-09T04:36:17;16.50;99.90
64855;DHT22;51321;50.428;8.378;2022-09-09T04:38:41;16.40;99.90
64855;DHT22;51321;50.428;8.378;2022-09-09T04:41:05;16.50;99.90
64855;DHT22;51321;50.428;8.378;2022-09-09T04:43:29;16.40;99.90
64855;DHT22;51321;50.428;8.378;2022-09-09T04:45:52;16.50;99.90
64855;DHT22;51321;50.428;8.378;2022-09-09T04:48:19;16.50;99.90
64855;DHT22;51321;50.428;8.378;2022-09-09T04:50:43;16.50;99.90
64855;DHT22;51321;50.428;8.378;2022-09-09T04:53:07;16.40;99.90
64855;DHT22;51321;50.428;8.378;2022-09-09T04:55:31;16.40;99.90
64855;DHT22;51321;50.428;8.378;2022-09-09T04:57:53;16.50;99.90
64855;DHT22;51321;50.428;8.378;2022-09-09T05:00:16;16.50;99.90
64855;DHT22;51321;50.428;8.378;2022-09-09T05:02:40;16.60;99.90
64855;DHT22;51321;50.428;8.378;2022-09-09T05:05:05;16.60;99.90
64855;DHT22;51321;50.428;8.378;2022-09-09T05:07:27;16.60;99.90
64855;DHT22;51321;50.428;8.378;2022-09-09T05:09:52;16.60;99.90
64855;DHT22;51321;50.428;8.378;2022-09-09T05:12:14;16.60;99.90
64855;DHT22;51321;50.428;8.378;2022-09-09T05:14:44;16.60;99.90
64855;DHT22;51321;50.428;8.378;2022-09-09T05:17:06;16.50;99.90
64855;DHT22;51321;50.428;8.378;2022-09-09T05:19:30;16.50;99.90
64855;DHT22;51321;50.428;8.378;2022-09-09T05:21:54;16.40;99.90
64855;DHT22;51321;50.428;8.378;2022-09-09T05:24:22;16.50;99.90
64855;DHT22;51321;50.428;8.378;2022-09-09T05:26:47;16.50;99.90
64855;DHT22;51321;50.428;8.378;2022-09-09T05:29:09;16.50;99.90
64855;DHT22;51321;50.428;8.378;2022-09-09T05:31:32;16.50;99.90
64855;DHT22;51321;50.428;8.378;2022-09-09T05:33:57;16.60;99.90
64855;DHT22;51321;50.428;8.378;2022-09-09T05:36:21;16.60;99.90
64855;DHT22;51321;50.428;8.378;2022-09-09T05:38:49;16.60;99.90
64855;DHT22;51321;50.428;8.378;2022-09-09T05:41:15;16.70;99.90
64855;DHT22;51321;50.428;8.378;2022-09-09T05:43:39;16.70;99.90
64855;DHT22;51321;50.428;8.378;2022-09-09T05:46:02;16.70;99.90
64855;DHT22;51321;50.428;8.378;2022-09-09T05:48:28;16.70;99.90
64855;DHT22;51321;50.428;8.378;2022-09-09T05:50:53;16.70;99.90
64855;DHT22;51321;50.428;8.378;2022-09-09T05:53:16;16.80;99.90
64855;DHT22;51321;50.428;8.378;2022-09-09T05:55:39;16.70;99.90
64855;DHT22;51321;50.428;8.378;2022-09-09T05:58:02;16.90;99.90
64855;DHT22;51321;50.428;8.378;2022-09-09T06:00:24;16.90;99.90
64855;DHT22;51321;50.428;8.378;2022-09-09T06:02:51;16.90;99.90
64855;DHT22;51321;50.428;8.378;2022-09-09T06:05:15;16.90;99.90
64855;DHT22;51321;50.428;8.378;2022-09-09T06:07:37;16.90;99.90
64855;DHT22;51321;50.428;8.378;2022-09-09T06:10:04;17.00;99.90
64855;DHT22;51321;50.428;8.378;2022-09-09T06:12:28;17.00;99.90
64855;DHT22;51321;50.428;8.378;2022-09-09T06:14:50;17.00;99.90
64855;DHT22;51321;50.428;8.378;2022-09-09T06:17:14;17.00;99.90
64855;DHT22;51321;50.428;8.378;2022-09-09T06:19:36;17.00;99.90
64855;DHT22;51321;50.428;8.378;2022-09-09T06:21:58;17.10;99.90
64855;DHT22;51321;50.428;8.378;2022-09-09T06:24:22;17.10;99.90
64855;DHT22;51321;50.428;8.378;2022-09-09T06:26:45;17.20;99.90
64855;DHT22;51321;50.428;8.378;2022-09-09T06:29:13;17.30;99.90
64855;DHT22;51321;50.428;8.378;2022-09-09T06:31:37;17.50;99.90
64855;DHT22;51321;50.428;8.378;2022-09-09T06:34:06;17.50;99.90
64855;DHT22;51321;50.428;8.378;2022-09-09T06:36:32;17.60;99.90
64855;DHT22;51321;50.428;8.378;2022-09-09T06:38:55;17.70;99.90
64855;DHT22;51321;50.428;8.378;2022-09-09T06:41:19;17.90;99.90
64855;DHT22;51321;50.428;8.378;2022-09-09T06:43:41;18.10;99.90
64855;DHT22;51321;50.428;8.378;2022-09-09T06:46:09;18.30;99.90
64855;DHT22;51321;50.428;8.378;2022-09-09T06:48:33;18.40;99.90
64855;DHT22;51321;50.428;8.378;2022-09-09T06:51:03;18.60;99.90
64855;DHT22;51321;50.428;8.378;2022-09-09T06:53:25;18.90;99.90
64855;DHT22;51321;50.428;8.378;2022-09-09T06:55:49;18.90;99.90
64855;DHT22;51321;50.428;8.378;2022-09-09T06:58:12;18.90;99.90
64855;DHT22;51321;50.428;8.378;2022-09-09T07:00:34;18.90;99.90
64855;DHT22;51321;50.428;8.378;2022-09-09T07:03:00;18.70;99.90
64855;DHT22;51321;50.428;8.378;2022-09-09T07:05:22;18.60;99.90
64855;DHT22;51321;50.428;8.378;2022-09-09T07:07:45;18.60;99.90
64855;DHT22;51321;50.428;8.378;2022-09-09T07:10:10;18.60;99.90
64855;DHT22;51321;50.428;8.378;2022-09-09T07:12:32;18.60;99.90
64855;DHT22;51321;50.428;8.378;2022-09-09T07:14:54;18.50;99.90
64855;DHT22;51321;50.428;8.378;2022-09-09T07:17:16;18.40;99.90
64855;DHT22;51321;50.428;8.378;2022-09-09T07:19:40;18.40;99.90
64855;DHT22;51321;50.428;8.378;2022-09-09T07:22:03;18.40;99.90
64855;DHT22;51321;50.428;8.378;2022-09-09T07:24:27;18.30;99.90
64855;DHT22;51321;50.428;8.378;2022-09-09T07:26:51;18.30;99.90
64855;DHT22;51321;50.428;8.378;2022-09-09T07:29:13;18.30;99.90
64855;DHT22;51321;50.428;8.378;2022-09-09T07:31:38;18.30;99.90
64855;DHT22;51321;50.428;8.378;2022-09-09T07:34:04;18.30;99.90
64855;DHT22;51321;50.428;8.378;2022-09-09T07:36:31;18.30;99.90
64855;DHT22;51321;50.428;8.378;2022-09-09T07:38:56;18.40;99.90
64855;DHT22;51321;50.428;8.378;2022-09-09T07:41:19;18.60;99.90
64855;DHT22;51321;50.428;8.378;2022-09-09T07:43:44;18.50;99.90
64855;DHT22;51321;50.428;8.378;2022-09-09T07:46:08;18.50;99.90
64855;DHT22;51321;50.428;8.378;2022-09-09T07:48:30;18.50;99.90
64855;DHT22;51321;50.428;8.378;2022-09-09T07:50:52;18.50;99.90
64855;DHT22;51321;50.428;8.378;2022-09-09T07:53:16;18.50;99.90
64855;DHT22;51321;50.428;8.378;2022-09-09T07:55:40;18.50;99.90
64855;DHT22;51321;50.428;8.378;2022-09-09T07:58:02;18.50;99.90
64855;DHT22;51321;50.428;8.378;2022-09-09T08:00:24;18.50;99.90
64855;DHT22;51321;50.428;8.378;2022-09-09T08:02:50;18.30;99.90
64855;DHT22;51321;50.428;8.378;2022-09-09T08:05:15;18.40;99.90
64855;DHT22;51321;50.428;8.378;2022-09-09T08:07:38;18.50;99.90
64855;DHT22;51321;50.428;8.378;2022-09-09T08:10:03;18.50;99.90
64855;DHT22;51321;50.428;8.378;2022-09-09T08:12:26;18.70;99.90
64855;DHT22;51321;50.428;8.378;2022-09-09T08:14:48;18.70;99.90
64855;DHT22;51321;50.428;8.378;2022-09-09T08:17:11;18.70;99.90
64855;DHT22;51321;50.428;8.378;2022-09-09T08:19:34;18.80;99.90
64855;DHT22;51321;50.428;8.378;2022-09-09T08:21:57;19.00;99.90
64855;DHT22;51321;50.428;8.378;2022-09-09T08:24:19;19.20;99.90
64855;DHT22;51321;50.428;8.378;2022-09-09T08:26:46;19.30;99.90
64855;DHT22;51321;50.428;8.378;2022-09-09T08:29:11;19.30;99.90
64855;DHT22;51321;50.428;8.378;2022-09-09T08:31:36;19.30;99.90
64855;DHT22;51321;50.428;8.378;2022-09-09T08:34:00;19.50;99.90
64855;DHT22;51321;50.428;8.378;2022-09-09T08:36:26;19.60;99.90
64855;DHT22;51321;50.428;8.378;2022-09-09T08:38:49;19.70;99.50
64855;DHT22;51321;50.428;8.378;2022-09-09T08:44:19;20.00;99.30
64855;DHT22;51321;50.428;8.378;2022-09-09T08:46:48;20.30;98.50
64855;DHT22;51321;50.428;8.378;2022-09-09T08:49:39;20.40;98.50
64855;DHT22;51321;50.428;8.378;2022-09-09T08:52:15;20.60;98.90
64855;DHT22;51321;50.428;8.378;2022-09-09T08:54:40;20.70;97.70
64855;DHT22;51321;50.428;8.378;2022-09-09T08:57:02;20.80;98.00
64855;DHT22;51321;50.428;8.378;2022-09-09T08:59:34;20.90;96.60
64855;DHT22;51321;50.428;8.378;2022-09-09T09:02:03;21.00;96.60
64855;DHT22;51321;50.428;8.378;2022-09-09T09:04:49;20.90;96.30
64855;DHT22;51321;50.428;8.378;2022-09-09T09:07:21;20.90;96.80
64855;DHT22;51321;50.428;8.378;2022-09-09T09:09:53;20.80;97.10
64855;DHT22;51321;50.428;8.378;2022-09-09T09:12:22;20.80;97.30
64855;DHT22;51321;50.428;8.378;2022-09-09T09:14:48;20.90;97.20
64855;DHT22;51321;50.428;8.378;2022-09-09T09:17:13;21.20;96.10
64855;DHT22;51321;50.428;8.378;2022-09-09T09:19:39;21.00;95.70
64855;DHT22;51321;50.428;8.378;2022-09-09T09:22:10;20.90;96.00
64855;DHT22;51321;50.428;8.378;2022-09-09T09:24:41;21.00;96.10
64855;DHT22;51321;50.428;8.378;2022-09-09T09:27:12;21.30;96.10
64855;DHT22;51321;50.428;8.378;2022-09-09T09:29:40;21.60;94.80
64855;DHT22;51321;50.428;8.378;2022-09-09T09:32:10;21.60;94.30
64855;DHT22;51321;50.428;8.378;2022-09-09T09:34:35;21.70;94.60
64855;DHT22;51321;50.428;8.378;2022-09-09T09:36:58;21.60;94.30
64855;DHT22;51321;50.428;8.378;2022-09-09T09:39:26;21.50;95.00
64855;DHT22;51321;50.428;8.378;2022-09-09T09:41:52;21.20;94.00
64855;DHT22;51321;50.428;8.378;2022-09-09T09:44:26;21.10;94.80
64855;DHT22;51321;50.428;8.378;2022-09-09T09:46:52;21.20;93.90
64855;DHT22;51321;50.428;8.378;2022-09-09T09:49:16;21.30;94.40
64855;DHT22;51321;50.428;8.378;2022-09-09T09:51:39;21.00;97.00
64855;DHT22;51321;50.428;8.378;2022-09-09T09:54:09;20.70;96.90
64855;DHT22;51321;50.428;8.378;2022-09-09T09:56:37;20.40;98.30
64855;DHT22;51321;50.428;8.378;2022-09-09T09:59:00;20.30;98.50
64855;DHT22;51321;50.428;8.378;2022-09-09T10:01:30;20.40;97.90
64855;DHT22;51321;50.428;8.378;2022-09-09T10:03:59;20.30;98.20
64855;DHT22;51321;50.428;8.378;2022-09-09T10:06:34;20.20;98.40
64855;DHT22;51321;50.428;8.378;2022-09-09T10:08:57;20.10;98.00
64855;DHT22;51321;50.428;8.378;2022-09-09T10:11:27;20.20;98.10
64855;DHT22;51321;50.428;8.378;2022-09-09T10:13:58;20.00;96.70
64855;DHT22;51321;50.428;8.378;2022-09-09T10:16:29;20.00;97.20
64855;DHT22;51321;50.428;8.378;2022-09-09T10:18:59;20.10;96.00
64855;DHT22;51321;50.428;8.378;2022-09-09T10:21:35;20.00;95.80
64855;DHT22;51321;50.428;8.378;2022-09-09T10:24:12;20.10;95.70
64855;DHT22;51321;50.428;8.378;2022-09-09T10:26:42;19.90;97.80
64855;DHT22;51321;50.428;8.378;2022-09-09T10:29:18;19.70;99.40
64855;DHT22;51321;50.428;8.378;2022-09-09T10:31:51;19.50;99.90
64855;DHT22;51321;50.428;8.378;2022-09-09T10:34:39;18.90;99.90
64855;DHT22;51321;50.428;8.378;2022-09-09T10:37:19;18.70;99.90
64855;DHT22;51321;50.428;8.378;2022-09-09T10:39:44;18.70;99.90
64855;DHT22;51321;50.428;8.378;2022-09-09T10:42:06;18.80;99.90
64855;DHT22;51321;50.428;8.378;2022-09-09T10:44:40;18.80;99.90
64855;DHT22;51321;50.428;8.378;2022-09-09T10:47:22;19.10;99.90
64855;DHT22;51321;50.428;8.378;2022-09-09T10:52:39;19.10;99.90
64855;DHT22;51321;50.428;8.378;2022-09-09T10:55:08;19.10;99.90
64855;DHT22;51321;50.428;8.378;2022-09-09T10:57:35;19.10;99.90
64855;DHT22;51321;50.428;8.378;2022-09-09T11:00:03;19.20;99.90
64855;DHT22;51321;50.428;8.378;2022-09-09T11:02:27;19.50;99.90
64855;DHT22;51321;50.428;8.378;2022-09-09T11:04:54;19.90;99.90
64855;DHT22;51321;50.428;8.378;2022-09-09T11:07:25;20.10;99.90
64855;DHT22;51321;50.428;8.378;2022-09-09T11:09:57;20.50;99.90
64855;DHT22;51321;50.428;8.378;2022-09-09T11:12:20;20.70;99.90
64855;DHT22;51321;50.428;8.378;2022-09-09T11:14:44;20.60;99.90
64855;DHT22;51321;50.428;8.378;2022-09-09T11:17:11;20.40;99.90
64855;DHT22;51321;50.428;8.378;2022-09-09T11:19:36;20.30;99.90
64855;DHT22;51321;50.428;8.378;2022-09-09T11:22:01;20.40;99.90
64855;DHT22;51321;50.428;8.378;2022-09-09T11:24:27;20.60;99.90
64855;DHT22;51321;50.428;8.378;2022-09-09T11:26:55;20.60;99.90
64855;DHT22;51321;50.428;8.378;2022-09-09T11:29:44;20.90;97.90
64855;DHT22;51321;50.428;8.378;2022-09-09T11:32:32;21.20;98.40
64855;DHT22;51321;50.428;8.378;2022-09-09T11:35:07;21.10;99.90
64855;DHT22;51321;50.428;8.378;2022-09-09T11:37:51;20.80;99.90
64855;DHT22;51321;50.428;8.378;2022-09-09T11:40:20;20.60;99.90
64855;DHT22;51321;50.428;8.378;2022-09-09T11:42:46;20.40;99.90
64855;DHT22;51321;50.428;8.378;2022-09-09T11:45:15;20.30;99.90
64855;DHT22;51321;50.428;8.378;2022-09-09T11:47:51;20.20;99.90
64855;DHT22;51321;50.428;8.378;2022-09-09T11:50:29;20.30;99.90
64855;DHT22;51321;50.428;8.378;2022-09-09T11:53:04;20.30;98.10
64855;DHT22;51321;50.428;8.378;2022-09-09T11:55:29;20.40;98.50
64855;DHT22;51321;50.428;8.378;2022-09-09T11:57:59;20.50;99.70
64855;DHT22;51321;50.428;8.378;2022-09-09T12:00:34;20.60;97.50
64855;DHT22;51321;50.428;8.378;2022-09-09T12:02:57;20.70;99.50
64855;DHT22;51321;50.428;8.378;2022-09-09T12:05:20;20.50;97.90
64855;DHT22;51321;50.428;8.378;2022-09-09T12:07:50;20.40;97.60
64855;DHT22;51321;50.428;8.378;2022-09-09T12:10:22;20.40;97.50
64855;DHT22;51321;50.428;8.378;2022-09-09T12:12:45;20.50;98.00
64855;DHT22;51321;50.428;8.378;2022-09-09T12:15:27;20.80;96.80
64855;DHT22;51321;50.428;8.378;2022-09-09T12:17:50;21.00;97.30
64855;DHT22;51321;50.428;8.378;2022-09-09T12:20:16;21.20;95.90
64855;DHT22;51321;50.428;8.378;2022-09-09T12:22:55;21.30;95.40
64855;DHT22;51321;50.428;8.378;2022-09-09T12:25:28;21.30;94.00
64855;DHT22;51321;50.428;8.378;2022-09-09T12:28:01;21.10;93.90
64855;DHT22;51321;50.428;8.378;2022-09-09T12:30:29;20.80;95.30
64855;DHT22;51321;50.428;8.378;2022-09-09T12:33:00;20.80;93.40
64855;DHT22;51321;50.428;8.378;2022-09-09T12:35:27;20.90;93.70
64855;DHT22;51321;50.428;8.378;2022-09-09T12:37:52;21.40;93.00
64855;DHT22;51321;50.428;8.378;2022-09-09T12:40:21;21.80;92.60
64855;DHT22;51321;50.428;8.378;2022-09-09T12:42:43;21.90;91.10
64855;DHT22;51321;50.428;8.378;2022-09-09T12:45:16;21.80;90.80
64855;DHT22;51321;50.428;8.378;2022-09-09T12:47:44;21.60;90.20
64855;DHT22;51321;50.428;8.378;2022-09-09T12:50:17;21.80;90.70
64855;DHT22;51321;50.428;8.378;2022-09-09T12:52:40;21.80;90.10
64855;DHT22;51321;50.428;8.378;2022-09-09T12:55:03;21.60;92.10
64855;DHT22;51321;50.428;8.378;2022-09-09T12:57:32;21.30;92.00
64855;DHT22;51321;50.428;8.378;2022-09-09T13:00:06;21.00;91.50
64855;DHT22;51321;50.428;8.378;2022-09-09T13:02:30;20.90;92.00
64855;DHT22;51321;50.428;8.378;2022-09-09T13:04:53;20.70;94.50
64855;DHT22;51321;50.428;8.378;2022-09-09T13:07:17;20.40;96.40
64855;DHT22;51321;50.428;8.378;2022-09-09T13:09:39;19.90;99.00
64855;DHT22;51321;50.428;8.378;2022-09-09T13:12:02;19.30;99.90
64855;DHT22;51321;50.428;8.378;2022-09-09T13:14:31;18.80;99.90
64855;DHT22;51321;50.428;8.378;2022-09-09T13:16:56;18.30;99.90
64855;DHT22;51321;50.428;8.378;2022-09-09T13:19:19;18.20;99.90
64855;DHT22;51321;50.428;8.378;2022-09-09T13:21:43;18.40;99.90
64855;DHT22;51321;50.428;8.378;2022-09-09T13:24:07;18.70;99.90
64855;DHT22;51321;50.428;8.378;2022-09-09T13:26:43;19.20;99.90
64855;DHT22;51321;50.428;8.378;2022-09-09T13:29:09;19.60;99.90
64855;DHT22;51321;50.428;8.378;2022-09-09T13:31:38;19.80;99.90
64855;DHT22;51321;50.428;8.378;2022-09-09T13:34:04;20.10;99.90
64855;DHT22;51321;50.428;8.378;2022-09-09T13:36:33;20.10;99.90
64855;DHT22;51321;50.428;8.378;2022-09-09T13:38:58;20.10;99.90
64855;DHT22;51321;50.428;8.378;2022-09-09T13:41:22;20.10;99.90
64855;DHT22;51321;50.428;8.378;2022-09-09T13:43:45;20.00;99.90
64855;DHT22;51321;50.428;8.378;2022-09-09T13:46:25;20.00;99.90
64855;DHT22;51321;50.428;8.378;2022-09-09T13:48:54;20.00;99.90
64855;DHT22;51321;50.428;8.378;2022-09-09T13:51:29;20.00;99.90
64855;DHT22;51321;50.428;8.378;2022-09-09T13:53:52;20.10;99.90
64855;DHT22;51321;50.428;8.378;2022-09-09T13:56:16;20.10;99.90
64855;DHT22;51321;50.428;8.378;2022-09-09T13:58:38;20.10;99.90
64855;DHT22;51321;50.428;8.378;2022-09-09T14:01:00;19.90;99.90
64855;DHT22;51321;50.428;8.378;2022-09-09T14:03:22;19.90;99.20
64855;DHT22;51321;50.428;8.378;2022-09-09T14:05:44;19.80;99.90
64855;DHT22;51321;50.428;8.378;2022-09-09T14:08:07;19.70;99.90
64855;DHT22;51321;50.428;8.378;2022-09-09T14:10:34;19.70;99.90
64855;DHT22;51321;50.428;8.378;2022-09-09T14:12:59;19.60;99.70
64855;DHT22;51321;50.428;8.378;2022-09-09T14:15:22;19.50;99.90
64855;DHT22;51321;50.428;8.378;2022-09-09T14:17:44;19.50;99.70
64855;DHT22;51321;50.428;8.378;2022-09-09T14:20:07;19.40;99.90
64855;DHT22;51321;50.428;8.378;2022-09-09T14:22:32;19.40;98.70
64855;DHT22;51321;50.428;8.378;2022-09-09T14:24:54;19.30;98.70
64855;DHT22;51321;50.428;8.378;2022-09-09T14:27:18;19.30;99.50
64855;DHT22;51321;50.428;8.378;2022-09-09T14:29:41;19.20;99.10
64855;DHT22;51321;50.428;8.378;2022-09-09T14:32:04;19.20;99.50
64855;DHT22;51321;50.428;8.378;2022-09-09T14:34:26;19.10;99.90
64855;DHT22;51321;50.428;8.378;2022-09-09T14:36:48;19.10;99.70
64855;DHT22;51321;50.428;8.378;2022-09-09T14:39:11;19.10;99.90
64855;DHT22;51321;50.428;8.378;2022-09-09T14:41:33;19.00;99.90
64855;DHT22;51321;50.428;8.378;2022-09-09T14:43:55;19.10;99.90
64855;DHT22;51321;50.428;8.378;2022-09-09T14:46:21;19.00;99.90
64855;DHT22;51321;50.428;8.378;2022-09-09T14:48:44;18.90;99.90
64855;DHT22;51321;50.428;8.378;2022-09-09T14:51:10;18.90;99.90
64855;DHT22;51321;50.428;8.378;2022-09-09T14:53:33;19.00;99.90
64855;DHT22;51321;50.428;8.378;2022-09-09T14:56:03;19.20;99.00
64855;DHT22;51321;50.428;8.378;2022-09-09T14:58:30;19.40;99.90
64855;DHT22;51321;50.428;8.378;2022-09-09T15:00:52;19.50;99.90
64855;DHT22;51321;50.428;8.378;2022-09-09T15:03:15;19.70;99.90
64855;DHT22;51321;50.428;8.378;2022-09-09T15:05:37;19.90;99.90
64855;DHT22;51321;50.428;8.378;2022-09-09T15:07:59;20.00;99.90
64855;DHT22;51321;50.428;8.378;2022-09-09T15:10:21;20.00;99.90
64855;DHT22;51321;50.428;8.378;2022-09-09T15:12:43;19.70;98.60
64855;DHT22;51321;50.428;8.378;2022-09-09T15:15:06;19.70;99.20
64855;DHT22;51321;50.428;8.378;2022-09-09T15:17:28;19.70;99.90
64855;DHT22;51321;50.428;8.378;2022-09-09T15:19:52;19.70;99.90
64855;DHT22;51321;50.428;8.378;2022-09-09T15:22:15;19.70;98.80
64855;DHT22;51321;50.428;8.378;2022-09-09T15:24:36;19.70;98.40
64855;DHT22;51321;50.428;8.378;2022-09-09T15:26:59;19.60;99.20
64855;DHT22;51321;50.428;8.378;2022-09-09T15:29:21;19.40;99.30
64855;DHT22;51321;50.428;8.378;2022-09-09T15:31:43;19.10;99.90